createdAt,value
2018-07-13T00:00:15.468Z,1009.57
2018-07-13T00:01:15.471Z,1009.60
2018-07-13T00:02:15.472Z,1009.56
2018-07-13T00:03:15.471Z,1009.58
2018-07-13T00:04:15.473Z,1009.55
2018-07-13T00:05:15.474Z,1009.58
2018-07-13T00:06:15.478Z,1009.62
2018-07-13T00:07:15.479Z,1009.59
2018-07-13T00:08:15.481Z,1009.60
2018-07-13T00:09:15.485Z,1009.60
2018-07-13T00:10:15.485Z,1009.60
2018-07-13T00:11:15.486Z,1009.62
2018-07-13T00:12:15.488Z,1009.64
2018-07-13T00:13:15.493Z,1009.64
2018-07-13T00:14:15.491Z,1009.64
2018-07-13T00:15:15.494Z,1009.59
2018-07-13T00:16:15.494Z,1009.65
2018-07-13T00:17:15.497Z,1009.62
2018-07-13T00:18:15.498Z,1009.56
2018-07-13T00:19:15.500Z,1009.61
2018-07-13T00:20:15.501Z,1009.60
2018-07-13T00:21:15.501Z,1009.63
2018-07-13T00:22:15.504Z,1009.59
2018-07-13T00:23:15.505Z,1009.64
2018-07-13T00:24:15.507Z,1009.65
2018-07-13T00:25:15.508Z,1009.64
2018-07-13T00:26:15.510Z,1009.62
2018-07-13T00:27:15.512Z,1009.69
2018-07-13T00:28:15.513Z,1009.65
2018-07-13T00:29:15.514Z,1009.70
2018-07-13T00:30:15.517Z,1009.73
2018-07-13T00:31:15.518Z,1009.71
2018-07-13T00:32:15.523Z,1009.71
2018-07-13T00:33:15.519Z,1009.73
2018-07-13T00:34:15.523Z,1009.74
2018-07-13T00:35:15.523Z,1009.79
2018-07-13T00:36:15.526Z,1009.77
2018-07-13T00:37:15.525Z,1009.75
2018-07-13T00:38:15.532Z,1009.76
2018-07-13T00:39:15.528Z,1009.76
2018-07-13T00:40:15.530Z,1009.75
2018-07-13T00:41:15.531Z,1009.68
2018-07-13T00:42:15.533Z,1009.72
2018-07-13T00:43:15.535Z,1009.72
2018-07-13T00:44:15.537Z,1009.70
2018-07-13T00:45:15.536Z,1009.71
2018-07-13T00:46:15.539Z,1009.70
2018-07-13T00:47:15.540Z,1009.70
2018-07-13T00:48:15.540Z,1009.71
2018-07-13T00:49:15.543Z,1009.73
2018-07-13T00:50:15.544Z,1009.73
2018-07-13T00:51:15.545Z,1009.71
2018-07-13T00:52:15.545Z,1009.70
2018-07-13T00:53:15.546Z,1009.71
2018-07-13T00:54:15.548Z,1009.69
2018-07-13T00:55:15.550Z,1009.71
2018-07-13T00:56:15.551Z,1009.70
2018-07-13T00:57:15.551Z,1009.72
2018-07-13T00:58:15.553Z,1009.64
2018-07-13T00:59:15.554Z,1009.70
2018-07-13T01:00:15.556Z,1009.64
2018-07-13T01:01:15.555Z,1009.65
2018-07-13T01:02:15.557Z,1009.57
2018-07-13T01:03:15.558Z,1009.64
2018-07-13T01:04:15.561Z,1009.71
2018-07-13T01:05:15.560Z,1009.69
2018-07-13T01:06:15.563Z,1009.69
2018-07-13T01:07:15.562Z,1009.69
2018-07-13T01:08:15.564Z,1009.69
2018-07-13T01:09:15.565Z,1009.70
2018-07-13T01:10:15.567Z,1009.71
2018-07-13T01:11:15.568Z,1009.73
2018-07-13T01:12:15.568Z,1009.72
2018-07-13T01:13:15.568Z,1009.69
2018-07-13T01:14:15.574Z,1009.68
2018-07-13T01:15:15.573Z,1009.67
2018-07-13T01:16:15.572Z,1009.64
2018-07-13T01:17:15.576Z,1009.62
2018-07-13T01:18:15.574Z,1009.64
2018-07-13T01:19:15.577Z,1009.69
2018-07-13T01:20:15.577Z,1009.64
2018-07-13T01:21:15.589Z,1009.68
2018-07-13T01:22:15.578Z,1009.68
2018-07-13T01:23:15.584Z,1009.68
2018-07-13T01:24:15.581Z,1009.71
2018-07-13T01:25:15.580Z,1009.72
2018-07-13T01:26:15.583Z,1009.74
2018-07-13T01:27:15.585Z,1009.74
2018-07-13T01:28:15.584Z,1009.73
2018-07-13T01:29:15.584Z,1009.72
2018-07-13T01:30:15.587Z,1009.76
2018-07-13T01:31:15.586Z,1009.79
2018-07-13T01:32:15.597Z,1009.83
2018-07-13T01:33:15.588Z,1009.86
2018-07-13T01:34:15.588Z,1009.89
2018-07-13T01:35:15.591Z,1009.84
2018-07-13T01:36:15.591Z,1009.85
2018-07-13T01:37:15.594Z,1009.89
2018-07-13T01:38:15.591Z,1009.87
2018-07-13T01:39:15.593Z,1009.88
2018-07-13T01:40:15.593Z,1009.92
2018-07-13T01:41:15.594Z,1009.94
2018-07-13T01:42:15.597Z,1009.94
2018-07-13T01:43:15.596Z,1009.93
2018-07-13T01:44:15.597Z,1009.97
2018-07-13T01:45:15.597Z,1009.97
2018-07-13T01:46:15.599Z,1010.00
2018-07-13T01:47:15.599Z,1009.94
2018-07-13T01:48:15.601Z,1009.96
2018-07-13T01:49:15.600Z,1009.99
2018-07-13T01:50:15.601Z,1010.07
2018-07-13T01:51:15.605Z,1010.00
2018-07-13T01:52:15.604Z,1010.03
2018-07-13T01:53:15.602Z,1009.95
2018-07-13T01:54:15.604Z,1009.99
2018-07-13T01:55:15.606Z,1010.00
2018-07-13T01:56:15.607Z,1010.01
2018-07-13T01:57:15.605Z,1009.97
2018-07-13T01:58:15.606Z,1009.99
2018-07-13T01:59:15.608Z,1010.01
2018-07-13T02:00:15.608Z,1009.95
2018-07-13T02:01:15.611Z,1009.96
2018-07-13T02:02:15.608Z,1009.97
2018-07-13T02:03:15.609Z,1010.01
2018-07-13T02:04:15.610Z,1009.98
2018-07-13T02:05:15.610Z,1010.02
2018-07-13T02:06:15.612Z,1010.04
2018-07-13T02:07:15.611Z,1010.02
2018-07-13T02:08:15.613Z,1010.03
2018-07-13T02:09:15.613Z,1010.00
2018-07-13T02:10:15.613Z,1010.00
2018-07-13T02:11:15.613Z,1010.00
2018-07-13T02:12:15.615Z,1010.02
2018-07-13T02:13:15.614Z,1010.03
2018-07-13T02:14:15.622Z,1010.05
2018-07-13T02:15:15.616Z,1010.01
2018-07-13T02:16:15.619Z,1010.03
2018-07-13T02:17:15.616Z,1009.99
2018-07-13T02:18:15.616Z,1009.99
2018-07-13T02:19:15.617Z,1009.99
2018-07-13T02:20:15.618Z,1009.98
2018-07-13T02:21:15.619Z,1009.99
2018-07-13T02:22:15.620Z,1009.98
2018-07-13T02:23:15.619Z,1009.96
2018-07-13T02:24:15.621Z,1009.94
2018-07-13T02:25:15.622Z,1009.99
2018-07-13T02:26:15.620Z,1009.97
2018-07-13T02:27:15.622Z,1009.99
2018-07-13T02:28:15.622Z,1010.02
2018-07-13T02:29:15.621Z,1010.00
2018-07-13T02:30:15.635Z,1009.98
2018-07-13T02:31:15.624Z,1009.97
2018-07-13T02:32:15.624Z,1009.99
2018-07-13T02:33:15.624Z,1009.99
2018-07-13T02:34:15.630Z,1010.01
2018-07-13T02:35:15.625Z,1010.02
2018-07-13T02:36:15.626Z,1010.04
2018-07-13T02:37:15.629Z,1010.00
2018-07-13T02:38:15.626Z,1010.04
2018-07-13T02:39:15.627Z,1010.03
2018-07-13T02:40:15.626Z,1010.03
2018-07-13T02:41:15.627Z,1010.09
2018-07-13T02:42:15.631Z,1010.07
2018-07-13T02:43:15.629Z,1010.11
2018-07-13T02:44:15.627Z,1010.11
2018-07-13T02:45:15.628Z,1010.10
2018-07-13T02:46:15.629Z,1010.13
2018-07-13T02:47:15.629Z,1010.13
2018-07-13T02:48:15.644Z,1010.12
2018-07-13T02:49:15.630Z,1010.15
2018-07-13T02:50:15.629Z,1010.18
2018-07-13T02:51:15.631Z,1010.22
2018-07-13T02:52:15.632Z,1010.18
2018-07-13T02:53:15.631Z,1010.26
2018-07-13T02:54:15.630Z,1010.21
2018-07-13T02:55:15.632Z,1010.20
2018-07-13T02:56:15.633Z,1010.25
2018-07-13T02:57:15.633Z,1010.26
2018-07-13T02:58:15.633Z,1010.25
2018-07-13T02:59:15.632Z,1010.24
2018-07-13T03:00:15.635Z,1010.27
2018-07-13T03:01:15.632Z,1010.22
2018-07-13T03:02:15.634Z,1010.24
2018-07-13T03:03:15.634Z,1010.23
2018-07-13T03:04:15.635Z,1010.24
2018-07-13T03:05:15.641Z,1010.28
2018-07-13T03:06:15.634Z,1010.25
2018-07-13T03:07:15.636Z,1010.29
2018-07-13T03:08:15.650Z,1010.32
2018-07-13T03:09:15.635Z,1010.30
2018-07-13T03:10:15.636Z,1010.32
2018-07-13T03:11:15.637Z,1010.34
2018-07-13T03:12:15.637Z,1010.29
2018-07-13T03:13:15.637Z,1010.33
2018-07-13T03:14:15.638Z,1010.36
2018-07-13T03:15:15.638Z,1010.37
2018-07-13T03:16:15.640Z,1010.36
2018-07-13T03:17:15.640Z,1010.38
2018-07-13T03:18:15.639Z,1010.42
2018-07-13T03:19:15.643Z,1010.43
2018-07-13T03:20:15.641Z,1010.45
2018-07-13T03:21:15.644Z,1010.42
2018-07-13T03:22:15.760Z,1010.47
2018-07-13T03:23:15.648Z,1010.47
2018-07-13T03:24:15.643Z,1010.45
2018-07-13T03:25:15.642Z,1010.46
2018-07-13T03:26:15.642Z,1010.44
2018-07-13T03:27:15.642Z,1010.42
2018-07-13T03:28:15.644Z,1010.45
2018-07-13T03:29:15.645Z,1010.46
2018-07-13T03:30:15.643Z,1010.46
2018-07-13T03:31:15.645Z,1010.50
2018-07-13T03:32:15.645Z,1010.50
2018-07-13T03:33:15.645Z,1010.51
2018-07-13T03:34:15.647Z,1010.56
2018-07-13T03:35:15.647Z,1010.59
2018-07-13T03:36:15.648Z,1010.57
2018-07-13T03:37:15.648Z,1010.59
2018-07-13T03:38:15.651Z,1010.55
2018-07-13T03:39:15.649Z,1010.54
2018-07-13T03:40:15.650Z,1010.58
2018-07-13T03:41:15.649Z,1010.58
2018-07-13T03:42:15.650Z,1010.57
2018-07-13T03:43:15.656Z,1010.59
2018-07-13T03:44:15.651Z,1010.59
2018-07-13T03:45:15.652Z,1010.56
2018-07-13T03:46:15.652Z,1010.56
2018-07-13T03:47:15.654Z,1010.57
2018-07-13T03:48:15.658Z,1010.59
2018-07-13T03:49:15.653Z,1010.59
2018-07-13T03:50:15.654Z,1010.61
2018-07-13T03:51:15.656Z,1010.60
2018-07-13T03:52:15.657Z,1010.60
2018-07-13T03:53:15.657Z,1010.59
2018-07-13T03:54:15.732Z,1010.58
2018-07-13T03:55:15.659Z,1010.60
2018-07-13T03:56:15.661Z,1010.58
2018-07-13T03:57:15.660Z,1010.62
2018-07-13T03:58:15.659Z,1010.59
2018-07-13T03:59:15.661Z,1010.57
2018-07-13T04:00:15.662Z,1010.58
2018-07-13T04:01:15.662Z,1010.61
2018-07-13T04:02:15.663Z,1010.58
2018-07-13T04:03:15.664Z,1010.62
2018-07-13T04:04:15.664Z,1010.60
2018-07-13T04:05:15.667Z,1010.56
2018-07-13T04:06:15.666Z,1010.58
2018-07-13T04:07:15.667Z,1010.57
2018-07-13T04:08:15.668Z,1010.58
2018-07-13T04:09:15.667Z,1010.58
2018-07-13T04:10:15.668Z,1010.60
2018-07-13T04:11:15.669Z,1010.56
2018-07-13T04:12:15.671Z,1010.56
2018-07-13T04:13:15.671Z,1010.55
2018-07-13T04:14:15.671Z,1010.55
2018-07-13T04:15:15.672Z,1010.54
2018-07-13T04:16:15.673Z,1010.56
2018-07-13T04:17:15.674Z,1010.55
2018-07-13T04:18:15.676Z,1010.55
2018-07-13T04:19:15.680Z,1010.55
2018-07-13T04:20:15.678Z,1010.57
2018-07-13T04:21:15.676Z,1010.55
2018-07-13T04:22:15.677Z,1010.57
2018-07-13T04:23:15.681Z,1010.57
2018-07-13T04:24:15.680Z,1010.61
2018-07-13T04:25:15.680Z,1010.60
2018-07-13T04:26:15.681Z,1010.59
2018-07-13T04:27:15.684Z,1010.63
2018-07-13T04:28:15.684Z,1010.57
2018-07-13T04:29:15.684Z,1010.60
2018-07-13T04:30:15.684Z,1010.60
2018-07-13T04:31:15.685Z,1010.62
2018-07-13T04:32:15.686Z,1010.57
2018-07-13T04:33:15.686Z,1010.60
2018-07-13T04:34:15.715Z,1010.60
2018-07-13T04:35:15.689Z,1010.63
2018-07-13T04:36:15.690Z,1010.63
2018-07-13T04:37:15.689Z,1010.67
2018-07-13T04:38:15.693Z,1010.63
2018-07-13T04:39:15.691Z,1010.63
2018-07-13T04:40:15.693Z,1010.66
2018-07-13T04:41:15.694Z,1010.68
2018-07-13T04:42:15.694Z,1010.63
2018-07-13T04:43:15.695Z,1010.62
2018-07-13T04:44:15.696Z,1010.70
2018-07-13T04:45:15.696Z,1010.70
2018-07-13T04:46:15.697Z,1010.67
2018-07-13T04:47:15.699Z,1010.66
2018-07-13T04:48:15.699Z,1010.70
2018-07-13T04:49:15.699Z,1010.69
2018-07-13T04:50:15.730Z,1010.72
2018-07-13T04:51:15.701Z,1010.70
2018-07-13T04:52:15.703Z,1010.71
2018-07-13T04:53:15.702Z,1010.69
2018-07-13T04:54:15.705Z,1010.68
2018-07-13T04:55:15.704Z,1010.66
2018-07-13T04:56:15.706Z,1010.65
2018-07-13T04:57:15.706Z,1010.71
2018-07-13T04:58:15.709Z,1010.68
2018-07-13T04:59:15.709Z,1010.70
2018-07-13T05:00:15.711Z,1010.74
2018-07-13T05:01:15.711Z,1010.72
2018-07-13T05:02:15.712Z,1010.74
2018-07-13T05:03:15.713Z,1010.70
2018-07-13T05:04:15.714Z,1010.72
2018-07-13T05:05:15.715Z,1010.71
2018-07-13T05:06:15.740Z,1010.72
2018-07-13T05:07:15.719Z,1010.70
2018-07-13T05:08:15.718Z,1010.72
2018-07-13T05:09:15.720Z,1010.71
2018-07-13T05:10:15.720Z,1010.70
2018-07-13T05:11:15.721Z,1010.71
2018-07-13T05:12:15.724Z,1010.71
2018-07-13T05:13:15.724Z,1010.76
2018-07-13T05:14:15.725Z,1010.78
2018-07-13T05:15:15.726Z,1010.73
2018-07-13T05:16:15.728Z,1010.75
2018-07-13T05:17:15.727Z,1010.74
2018-07-13T05:18:15.730Z,1010.73
2018-07-13T05:19:15.735Z,1010.73
2018-07-13T05:20:15.732Z,1010.72
2018-07-13T05:21:15.774Z,1010.71
2018-07-13T05:22:15.737Z,1010.76
2018-07-13T05:23:15.735Z,1010.71
2018-07-13T05:24:15.741Z,1010.76
2018-07-13T05:25:15.737Z,1010.73
2018-07-13T05:26:15.739Z,1010.76
2018-07-13T05:27:15.743Z,1010.84
2018-07-13T05:28:15.741Z,1010.79
2018-07-13T05:29:15.742Z,1010.79
2018-07-13T05:30:15.744Z,1010.81
2018-07-13T05:31:15.746Z,1010.83
2018-07-13T05:32:15.748Z,1010.84
2018-07-13T05:33:15.749Z,1010.84
2018-07-13T05:34:15.748Z,1010.83
2018-07-13T05:35:15.752Z,1010.85
2018-07-13T05:36:15.752Z,1010.79
2018-07-13T05:37:15.754Z,1010.81
2018-07-13T05:38:15.804Z,1010.84
2018-07-13T05:39:15.756Z,1010.81
2018-07-13T05:40:15.759Z,1010.78
2018-07-13T05:41:15.759Z,1010.85
2018-07-13T05:42:15.760Z,1010.83
2018-07-13T05:43:15.762Z,1010.79
2018-07-13T05:44:15.767Z,1010.83
2018-07-13T05:45:15.762Z,1010.85
2018-07-13T05:46:15.764Z,1010.85
2018-07-13T05:47:15.766Z,1010.86
2018-07-13T05:48:15.768Z,1010.88
2018-07-13T05:49:15.769Z,1010.90
2018-07-13T05:50:15.773Z,1010.89
2018-07-13T05:51:15.771Z,1010.85
2018-07-13T05:52:15.772Z,1010.89
2018-07-13T05:53:15.773Z,1010.90
2018-07-13T05:54:15.775Z,1010.93
2018-07-13T05:55:15.776Z,1010.95
2018-07-13T05:56:15.781Z,1010.90
2018-07-13T05:57:15.779Z,1010.89
2018-07-13T05:58:15.781Z,1010.87
2018-07-13T05:59:15.781Z,1010.90
2018-07-13T06:00:15.784Z,1010.91
2018-07-13T06:01:15.786Z,1010.83
2018-07-13T06:02:15.787Z,1010.89
2018-07-13T06:03:15.788Z,1010.93
2018-07-13T06:04:15.790Z,1010.91
2018-07-13T06:05:15.791Z,1010.92
2018-07-13T06:06:15.791Z,1010.91
2018-07-13T06:07:15.793Z,1010.96
2018-07-13T06:08:15.795Z,1010.95
2018-07-13T06:09:15.796Z,1010.94
2018-07-13T06:10:15.797Z,1010.94
2018-07-13T06:11:15.800Z,1010.93
2018-07-13T06:12:15.804Z,1010.95
2018-07-13T06:13:15.805Z,1010.90
2018-07-13T06:14:15.804Z,1010.91
2018-07-13T06:15:15.805Z,1010.92
2018-07-13T06:16:15.807Z,1010.91
2018-07-13T06:17:15.807Z,1010.95
2018-07-13T06:18:15.810Z,1010.95
2018-07-13T06:19:15.811Z,1010.99
2018-07-13T06:20:15.873Z,1010.99
2018-07-13T06:21:15.813Z,1011.05
2018-07-13T06:22:15.815Z,1011.06
2018-07-13T06:23:15.817Z,1011.11
2018-07-13T06:24:15.832Z,1011.12
2018-07-13T06:25:15.821Z,1011.15
2018-07-13T06:26:15.823Z,1011.12
2018-07-13T06:27:15.823Z,1011.18
2018-07-13T06:28:15.825Z,1011.13
2018-07-13T06:29:15.831Z,1011.16
2018-07-13T06:30:15.891Z,1011.15
2018-07-13T06:31:15.865Z,1011.14
2018-07-13T06:32:15.835Z,1011.11
2018-07-13T06:33:15.834Z,1011.08
2018-07-13T06:34:15.835Z,1011.07
2018-07-13T06:35:15.837Z,1011.06
2018-07-13T06:36:15.838Z,1011.02
2018-07-13T06:37:15.843Z,1011.08
2018-07-13T06:38:15.842Z,1011.08
2018-07-13T06:39:15.844Z,1011.10
2018-07-13T06:40:15.846Z,1011.11
2018-07-13T06:41:15.848Z,1011.10
2018-07-13T06:42:15.851Z,1011.19
2018-07-13T06:43:15.851Z,1011.19
2018-07-13T06:44:15.853Z,1011.16
2018-07-13T06:45:15.854Z,1011.21
2018-07-13T06:46:15.857Z,1011.21
2018-07-13T06:47:15.859Z,1011.21
2018-07-13T06:48:15.861Z,1011.23
2018-07-13T06:49:15.862Z,1011.24
2018-07-13T06:50:15.865Z,1011.26
2018-07-13T06:51:15.866Z,1011.19
2018-07-13T06:52:15.869Z,1011.25
2018-07-13T06:53:15.871Z,1011.26
2018-07-13T06:54:15.873Z,1011.24
2018-07-13T06:55:15.874Z,1011.30
2018-07-13T06:56:15.877Z,1011.31
2018-07-13T06:57:15.878Z,1011.28
2018-07-13T06:58:15.880Z,1011.32
2018-07-13T06:59:15.884Z,1011.35
2018-07-13T07:00:15.885Z,1011.39
2018-07-13T07:01:15.888Z,1011.41
2018-07-13T07:02:15.888Z,1011.36
2018-07-13T07:03:15.896Z,1011.40
2018-07-13T07:04:15.894Z,1011.41
2018-07-13T07:05:15.895Z,1011.37
2018-07-13T07:06:15.898Z,1011.38
2018-07-13T07:07:15.902Z,1011.42
2018-07-13T07:08:15.903Z,1011.43
2018-07-13T07:09:15.907Z,1011.42
2018-07-13T07:10:15.909Z,1011.41
2018-07-13T07:11:15.910Z,1011.41
2018-07-13T07:12:15.914Z,1011.47
2018-07-13T07:13:15.916Z,1011.49
2018-07-13T07:14:15.918Z,1011.51
2018-07-13T07:15:15.922Z,1011.62
2018-07-13T07:16:15.926Z,1011.64
2018-07-13T07:17:15.925Z,1011.61
2018-07-13T07:18:15.931Z,1011.61
2018-07-13T07:19:15.931Z,1011.57
2018-07-13T07:20:15.934Z,1011.61
2018-07-13T07:21:15.936Z,1011.63
2018-07-13T07:22:15.940Z,1011.63
2018-07-13T07:23:15.944Z,1011.67
2018-07-13T07:24:15.947Z,1011.69
2018-07-13T07:25:15.948Z,1011.62
2018-07-13T07:26:15.957Z,1011.54
2018-07-13T07:27:15.955Z,1011.50
2018-07-13T07:28:15.963Z,1011.51
2018-07-13T07:29:15.961Z,1011.49
2018-07-13T07:30:15.967Z,1011.50
2018-07-13T07:31:15.969Z,1011.56
2018-07-13T07:32:15.972Z,1011.53
2018-07-13T07:33:15.977Z,1011.56
2018-07-13T07:34:15.980Z,1011.62
2018-07-13T07:36:14.342Z,1011.54
2018-07-13T07:37:14.344Z,1011.52
2018-07-13T07:38:14.349Z,1011.58
2018-07-13T07:39:14.352Z,1011.54
2018-07-13T07:40:14.355Z,1011.71
2018-07-13T07:41:14.359Z,1011.81
2018-07-13T07:42:14.365Z,1011.91
2018-07-13T07:43:14.369Z,1011.85
2018-07-13T07:44:14.376Z,1011.72
2018-07-13T07:45:14.380Z,1012.15
2018-07-13T07:46:14.386Z,1011.86
2018-07-13T07:47:14.393Z,1012.37
2018-07-13T07:48:14.401Z,1012.19
2018-07-13T07:49:14.406Z,1012.37
2018-07-13T07:50:14.414Z,1012.52
2018-07-13T07:51:14.422Z,1012.11
2018-07-13T07:52:14.430Z,1012.03
2018-07-13T07:53:14.438Z,1012.02
2018-07-13T07:54:14.452Z,1011.70
2018-07-13T07:55:14.457Z,1012.45
2018-07-13T07:56:14.479Z,1012.52
2018-07-13T07:57:14.475Z,1012.47
2018-07-13T07:58:14.483Z,1012.54
2018-07-13T07:59:14.495Z,1012.52
2018-07-13T08:00:14.503Z,1012.51
2018-07-13T08:01:14.514Z,1012.50
2018-07-13T08:02:14.524Z,1012.49
2018-07-13T08:03:14.535Z,1012.51
2018-07-13T08:04:14.546Z,1012.48
2018-07-13T08:05:14.556Z,1012.56
2018-07-13T08:06:14.684Z,1012.56
2018-07-13T08:07:14.955Z,1012.57
2018-07-13T08:08:14.593Z,1012.62
2018-07-13T08:09:14.604Z,1012.62
2018-07-13T08:10:14.617Z,1012.68
2018-07-13T08:11:14.629Z,1012.66
2018-07-13T08:12:14.642Z,1012.63
2018-07-13T08:13:14.654Z,1012.62
2018-07-13T08:14:14.836Z,1012.61
2018-07-13T08:15:14.683Z,1012.58
2018-07-13T08:16:14.694Z,1012.59
2018-07-13T08:17:14.708Z,1012.56
2018-07-13T08:18:14.723Z,1012.64
2018-07-13T08:19:14.738Z,1012.56
2018-07-13T08:20:14.751Z,1012.53
2018-07-13T08:21:14.763Z,1012.51
2018-07-13T08:22:14.782Z,1012.55
2018-07-13T08:23:14.794Z,1012.52
2018-07-13T08:24:14.808Z,1012.47
2018-07-13T08:25:14.822Z,1012.53
2018-07-13T08:26:14.837Z,1012.52
2018-07-13T08:27:14.851Z,1012.50
2018-07-13T08:28:14.866Z,1012.49
2018-07-13T08:29:14.880Z,1012.46
2018-07-13T08:30:14.896Z,1012.40
2018-07-13T08:31:14.911Z,1012.38
2018-07-13T08:32:14.927Z,1012.28
2018-07-13T08:33:14.939Z,1012.21
2018-07-13T08:34:14.955Z,1012.18
2018-07-13T08:35:14.970Z,1012.10
2018-07-13T08:36:14.984Z,1012.13
2018-07-13T08:37:14.999Z,1012.04
2018-07-13T08:38:15.015Z,1012.07
2018-07-13T08:39:15.030Z,1012.10
2018-07-13T08:40:15.046Z,1012.09
2018-07-13T08:41:15.059Z,1012.09
2018-07-13T08:42:15.074Z,1012.07
2018-07-13T08:43:15.090Z,1012.06
2018-07-13T08:44:15.104Z,1012.10
2018-07-13T08:45:15.118Z,1012.09
2018-07-13T08:46:15.135Z,1012.07
2018-07-13T08:47:15.150Z,1012.14
2018-07-13T08:48:15.165Z,1012.07
2018-07-13T08:49:15.180Z,1012.07
2018-07-13T08:50:15.201Z,1012.09
2018-07-13T08:51:15.266Z,1012.08
2018-07-13T08:52:15.228Z,1012.11
2018-07-13T08:53:15.243Z,1012.11
2018-07-13T08:54:15.257Z,1012.07
2018-07-13T08:55:15.271Z,1012.06
2018-07-13T08:56:15.317Z,1012.08
2018-07-13T08:57:15.301Z,1012.07
2018-07-13T08:58:15.317Z,1012.09
2018-07-13T08:59:15.332Z,1012.09
2018-07-13T09:00:15.349Z,1012.05
2018-07-13T09:01:15.363Z,1012.04
2018-07-13T09:02:15.379Z,1012.08
2018-07-13T09:03:15.395Z,1012.05
2018-07-13T09:04:15.430Z,1012.06
2018-07-13T09:05:15.425Z,1012.07
2018-07-13T09:06:15.444Z,1012.06
2018-07-13T09:07:15.458Z,1012.07
2018-07-13T09:08:15.470Z,1012.03
2018-07-13T09:09:15.486Z,1012.05
2018-07-13T09:10:15.501Z,1012.09
2018-07-13T09:11:15.517Z,1012.08
2018-07-13T09:12:15.532Z,1012.04
2018-07-13T09:13:15.548Z,1012.07
2018-07-13T09:14:15.564Z,1012.09
2018-07-13T09:15:15.591Z,1012.11
2018-07-13T09:16:15.597Z,1012.11
2018-07-13T09:17:15.610Z,1012.14
2018-07-13T09:18:15.638Z,1012.15
2018-07-13T09:19:15.642Z,1012.11
2018-07-13T09:20:15.656Z,1012.15
2018-07-13T09:21:15.673Z,1012.16
2018-07-13T09:22:15.688Z,1012.14
2018-07-13T09:23:15.703Z,1012.17
2018-07-13T09:24:15.720Z,1012.23
2018-07-13T09:25:15.735Z,1012.16
2018-07-13T09:26:15.750Z,1012.20
2018-07-13T09:27:15.766Z,1012.21
2018-07-13T09:28:15.782Z,1012.18
2018-07-13T09:29:15.799Z,1012.22
2018-07-13T09:30:15.814Z,1012.18
2018-07-13T09:31:15.872Z,1012.26
2018-07-13T09:32:15.846Z,1012.23
2018-07-13T09:33:15.861Z,1012.21
2018-07-13T09:34:15.877Z,1012.23
2018-07-13T09:35:15.910Z,1012.25
2018-07-13T09:36:15.910Z,1012.27
2018-07-13T09:37:15.924Z,1012.26
2018-07-13T09:38:16.010Z,1012.30
2018-07-13T09:39:15.956Z,1012.33
2018-07-13T09:40:15.972Z,1012.32
2018-07-13T09:41:15.987Z,1012.29
2018-07-13T09:42:16.003Z,1012.30
2018-07-13T09:43:16.022Z,1012.25
2018-07-13T09:44:16.036Z,1012.31
2018-07-13T09:45:16.052Z,1012.30
2018-07-13T09:46:16.071Z,1012.29
2018-07-13T09:47:16.088Z,1012.29
2018-07-13T09:48:16.099Z,1012.26
2018-07-13T09:49:16.113Z,1012.26
2018-07-13T09:50:16.129Z,1012.26
2018-07-13T09:51:16.145Z,1012.31
2018-07-13T09:52:16.160Z,1012.26
2018-07-13T09:53:16.176Z,1012.25
2018-07-13T09:54:16.264Z,1012.29
2018-07-13T09:55:16.208Z,1012.31
2018-07-13T09:56:16.223Z,1012.32
2018-07-13T09:57:16.245Z,1012.30
2018-07-13T09:58:16.309Z,1012.31
2018-07-13T09:59:16.270Z,1012.31
2018-07-13T10:00:16.286Z,1012.33
2018-07-13T10:01:16.301Z,1012.31
2018-07-13T10:02:16.316Z,1012.29
2018-07-13T10:03:16.334Z,1012.26
2018-07-13T10:04:16.348Z,1012.26
2018-07-13T10:05:16.372Z,1012.25
2018-07-13T10:06:16.382Z,1012.25
2018-07-13T10:07:16.395Z,1012.31
2018-07-13T10:08:16.411Z,1012.29
2018-07-13T10:09:16.427Z,1012.30
2018-07-13T10:10:16.442Z,1012.28
2018-07-13T10:11:16.457Z,1012.28
2018-07-13T10:12:16.472Z,1012.31
2018-07-13T10:13:16.524Z,1012.28
2018-07-13T10:14:16.504Z,1012.28
2018-07-13T10:15:16.519Z,1012.29
2018-07-13T10:16:16.535Z,1012.27
2018-07-13T10:17:16.551Z,1012.29
2018-07-13T10:18:16.564Z,1012.27
2018-07-13T10:19:16.580Z,1012.26
2018-07-13T10:20:16.596Z,1012.24
2018-07-13T10:21:16.609Z,1012.23
2018-07-13T10:22:16.626Z,1012.18
2018-07-13T10:23:16.641Z,1012.21
2018-07-13T10:24:16.658Z,1012.19
2018-07-13T10:25:16.672Z,1012.22
2018-07-13T10:26:16.686Z,1012.21
2018-07-13T10:27:16.702Z,1012.26
2018-07-13T10:28:16.717Z,1012.20
2018-07-13T10:29:16.827Z,1012.23
2018-07-13T10:30:16.748Z,1012.15
2018-07-13T10:31:16.762Z,1012.19
2018-07-13T10:32:16.779Z,1012.15
2018-07-13T10:33:16.792Z,1012.17
2018-07-13T10:34:16.808Z,1012.18
2018-07-13T10:35:16.843Z,1012.25
2018-07-13T10:36:16.840Z,1012.20
2018-07-13T10:37:16.852Z,1012.17
2018-07-13T10:38:16.868Z,1012.17
2018-07-13T10:39:16.884Z,1012.10
2018-07-13T10:40:16.899Z,1012.17
2018-07-13T10:41:16.914Z,1012.12
2018-07-13T10:42:16.927Z,1012.12
2018-07-13T10:43:16.943Z,1012.13
2018-07-13T10:44:16.958Z,1012.10
2018-07-13T10:45:16.972Z,1012.08
2018-07-13T10:46:17.019Z,1012.06
2018-07-13T10:47:17.002Z,1012.02
2018-07-13T10:48:17.017Z,1012.01
2018-07-13T10:49:17.032Z,1012.04
2018-07-13T10:50:17.045Z,1012.07
2018-07-13T10:51:17.062Z,1012.02
2018-07-13T10:52:17.076Z,1012.01
2018-07-13T10:53:17.090Z,1011.98
2018-07-13T10:54:17.104Z,1012.00
2018-07-13T10:55:17.118Z,1012.01
2018-07-13T10:56:17.134Z,1012.03
2018-07-13T10:57:17.149Z,1012.05
2018-07-13T10:58:17.166Z,1012.02
2018-07-13T10:59:17.177Z,1012.01
2018-07-13T11:00:17.193Z,1012.01
2018-07-13T11:01:17.209Z,1011.99
2018-07-13T11:02:17.221Z,1011.98
2018-07-13T11:03:17.235Z,1011.99
2018-07-13T11:04:17.250Z,1011.99
2018-07-13T11:05:17.264Z,1011.97
2018-07-13T11:06:17.279Z,1011.95
2018-07-13T11:07:17.293Z,1011.91
2018-07-13T11:08:17.308Z,1011.91
2018-07-13T11:09:17.322Z,1011.81
2018-07-13T11:10:17.336Z,1011.83
2018-07-13T11:11:17.349Z,1011.85
2018-07-13T11:12:17.364Z,1011.79
2018-07-13T11:13:17.377Z,1011.81
2018-07-13T11:14:17.393Z,1011.86
2018-07-13T11:15:17.406Z,1011.78
2018-07-13T11:16:17.423Z,1011.73
2018-07-13T11:17:17.434Z,1011.73
2018-07-13T11:18:17.447Z,1011.72
2018-07-13T11:19:17.463Z,1011.64
2018-07-13T11:20:17.475Z,1011.67
2018-07-13T11:21:17.489Z,1011.60
2018-07-13T11:22:17.502Z,1011.48
2018-07-13T11:23:17.521Z,1011.41
2018-07-13T11:24:17.541Z,1011.44
2018-07-13T11:25:17.543Z,1011.49
2018-07-13T11:26:17.556Z,1011.56
2018-07-13T11:27:17.573Z,1011.50
2018-07-13T11:28:17.583Z,1011.51
2018-07-13T11:29:17.596Z,1011.42
2018-07-13T11:30:17.609Z,1011.33
2018-07-13T11:31:17.623Z,1011.34
2018-07-13T11:32:17.635Z,1011.29
2018-07-13T11:33:17.647Z,1011.32
2018-07-13T11:34:17.659Z,1011.33
2018-07-13T11:35:17.674Z,1011.27
2018-07-13T11:36:17.690Z,1011.30
2018-07-13T11:37:17.836Z,1011.33
2018-07-13T11:38:17.708Z,1011.29
2018-07-13T11:39:17.728Z,1011.30
2018-07-13T11:40:17.732Z,1011.29
2018-07-13T11:41:17.748Z,1011.26
2018-07-13T11:42:17.755Z,1011.30
2018-07-13T11:43:17.767Z,1011.28
2018-07-13T11:44:17.811Z,1011.26
2018-07-13T11:45:17.790Z,1011.28
2018-07-13T11:46:17.802Z,1011.25
2018-07-13T11:47:17.812Z,1011.27
2018-07-13T11:48:17.825Z,1011.22
2018-07-13T11:49:17.835Z,1011.34
2018-07-13T11:50:17.846Z,1011.27
2018-07-13T11:51:17.857Z,1011.22
2018-07-13T11:52:17.868Z,1011.18
2018-07-13T11:53:17.878Z,1011.20
2018-07-13T11:54:17.891Z,1011.14
2018-07-13T11:55:17.900Z,1011.15
2018-07-13T11:56:17.910Z,1011.10
2018-07-13T11:57:17.922Z,1011.12
2018-07-13T11:58:17.930Z,1011.16
2018-07-13T11:59:17.941Z,1011.12
2018-07-13T12:00:17.952Z,1011.15
2018-07-13T12:01:17.961Z,1011.17
2018-07-13T12:02:17.972Z,1011.12
2018-07-13T12:03:17.983Z,1011.15
2018-07-13T12:04:17.996Z,1011.13
2018-07-13T12:05:18.006Z,1011.14
2018-07-13T12:06:18.012Z,1011.07